createdAt,value
2023-05-06T00:00:52.148Z,100981.81
2023-05-06T00:03:37.499Z,100985.09
2023-05-06T00:06:22.522Z,100984.84
2023-05-06T00:09:07.432Z,100978.25
2023-05-06T00:11:52.445Z,100970.78
2023-05-06T00:14:37.405Z,100969.34
2023-05-06T00:17:22.334Z,100971.63
2023-05-06T00:20:09.460Z,100962.34
2023-05-06T00:22:55.078Z,100975.75
2023-05-06T00:25:40.325Z,100971.06
2023-05-06T00:28:25.264Z,100983.06
2023-05-06T00:31:10.412Z,100983.16
2023-05-06T00:33:55.184Z,100991.00
2023-05-06T00:36:40.337Z,100992.06
2023-05-06T00:39:27.044Z,100994.25
2023-05-06T00:42:12.288Z,100991.31
2023-05-06T00:44:57.563Z,100987.19
2023-05-06T00:47:43.169Z,100990.66
2023-05-06T00:50:29.695Z,100981.53
2023-05-06T00:53:16.057Z,100978.22
2023-05-06T00:56:03.465Z,100981.44
2023-05-06T00:58:48.726Z,100983.22
2023-05-06T01:01:33.772Z,100984.28
2023-05-06T01:04:19.303Z,100990.56
2023-05-06T01:07:23.468Z,100986.25
2023-05-06T01:10:28.820Z,100990.19
2023-05-06T01:13:36.299Z,100988.91
2023-05-06T01:16:25.077Z,100986.25
2023-05-06T01:19:17.552Z,100992.53
2023-05-06T01:22:06.660Z,100988.50
2023-05-06T01:24:52.412Z,100984.25
2023-05-06T01:27:37.665Z,100990.50
2023-05-06T01:30:24.049Z,100976.94
2023-05-06T01:33:23.690Z,100986.53
2023-05-06T01:36:53.731Z,100983.25
2023-05-06T01:39:42.355Z,100979.16
2023-05-06T01:42:29.144Z,100983.16
2023-05-06T01:45:16.592Z,100990.91
2023-05-06T01:48:02.252Z,100986.78
2023-05-06T01:50:47.110Z,100988.97
2023-05-06T01:53:33.137Z,100990.78
2023-05-06T01:56:18.339Z,100983.31
2023-05-06T01:59:03.756Z,100992.06
2023-05-06T02:01:48.704Z,100995.81
2023-05-06T02:04:33.962Z,101000.69
2023-05-06T02:07:18.953Z,100998.81
2023-05-06T02:10:04.472Z,101001.34
2023-05-06T02:12:49.667Z,100998.91
2023-05-06T02:15:34.810Z,100999.22
2023-05-06T02:18:19.595Z,100996.81
2023-05-06T02:21:04.524Z,100987.13
2023-05-06T02:23:49.914Z,100985.59
2023-05-06T02:26:34.871Z,100999.28
2023-05-06T02:29:19.662Z,100989.38
2023-05-06T02:32:05.676Z,100981.00
2023-05-06T02:34:51.989Z,100987.50
2023-05-06T02:37:37.407Z,100978.28
2023-05-06T02:40:22.543Z,100978.38
2023-05-06T02:43:08.068Z,100976.63
2023-05-06T02:45:53.038Z,100982.16
2023-05-06T02:48:37.984Z,100978.84
2023-05-06T02:51:23.009Z,100977.22
2023-05-06T02:54:08.306Z,100978.00
2023-05-06T02:56:53.368Z,100983.09
2023-05-06T02:59:38.620Z,100973.75
2023-05-06T03:02:23.662Z,100974.50
2023-05-06T03:05:09.798Z,100978.19
2023-05-06T03:07:55.434Z,100973.59
2023-05-06T03:10:40.544Z,100977.47
2023-05-06T03:13:25.315Z,100982.75
2023-05-06T03:16:15.276Z,100975.03
2023-05-06T03:19:00.354Z,100983.00
2023-05-06T03:21:46.391Z,100982.47
2023-05-06T03:24:31.205Z,100980.63
2023-05-06T03:27:16.280Z,100983.13
2023-05-06T03:30:01.935Z,100982.25
2023-05-06T03:32:47.295Z,100980.09
2023-05-06T03:35:32.661Z,100976.97
2023-05-06T03:38:17.912Z,100981.97
2023-05-06T03:41:03.041Z,100980.44
2023-05-06T03:43:48.268Z,100980.00
2023-05-06T03:46:33.465Z,100986.31
2023-05-06T03:49:20.514Z,100990.59
2023-05-06T03:52:06.921Z,100986.03
2023-05-06T03:54:52.156Z,100986.31
2023-05-06T03:57:36.961Z,100993.22
2023-05-06T04:00:22.041Z,100986.09
2023-05-06T04:03:07.417Z,100983.06
2023-05-06T04:05:52.910Z,100984.78
2023-05-06T04:08:38.247Z,100990.09
2023-05-06T04:11:23.127Z,100990.66
2023-05-06T04:14:08.044Z,100990.88
2023-05-06T04:16:53.440Z,100988.50
2023-05-06T04:19:38.443Z,100996.25
2023-05-06T04:22:23.767Z,100996.66
2023-05-06T04:25:09.402Z,101000.38
2023-05-06T04:27:54.967Z,100995.25
2023-05-06T04:30:39.898Z,101002.09
2023-05-06T04:33:27.293Z,101001.56
2023-05-06T04:36:12.856Z,101008.13
2023-05-06T04:38:58.306Z,101012.59
2023-05-06T04:41:44.492Z,101010.84
2023-05-06T04:44:30.859Z,101011.34
2023-05-06T04:47:16.646Z,101018.97
2023-05-06T04:50:01.891Z,101015.59
2023-05-06T04:52:47.226Z,101018.44
2023-05-06T04:55:33.341Z,101020.41
2023-05-06T04:58:19.487Z,101031.47
2023-05-06T05:01:07.926Z,101028.81
2023-05-06T05:03:53.158Z,101030.38
2023-05-06T05:06:38.171Z,101032.97
2023-05-06T05:09:23.192Z,101031.59
2023-05-06T05:12:08.450Z,101030.38
2023-05-06T05:14:53.576Z,101024.34
2023-05-06T05:17:39.121Z,101020.41
2023-05-06T05:20:24.001Z,101035.78
2023-05-06T05:23:08.932Z,101031.59
2023-05-06T05:25:54.027Z,101043.25
2023-05-06T05:28:39.397Z,101037.84
2023-05-06T05:31:24.524Z,101042.41
2023-05-06T05:34:09.830Z,101047.91
2023-05-06T05:36:54.824Z,101049.72
2023-05-06T05:39:40.395Z,101050.69
2023-05-06T05:42:25.395Z,101052.03
2023-05-06T05:45:12.264Z,101042.06
2023-05-06T05:47:57.425Z,101054.03
2023-05-06T05:50:42.379Z,101048.88
2023-05-06T05:53:27.420Z,101047.13
2023-05-06T05:56:13.170Z,101054.72
2023-05-06T05:58:58.077Z,101063.19
2023-05-06T06:01:43.426Z,101061.47
2023-05-06T06:04:28.876Z,101068.47
2023-05-06T06:07:14.116Z,101074.03
2023-05-06T06:09:59.210Z,101076.97
2023-05-06T06:12:44.922Z,101072.78
2023-05-06T06:15:30.187Z,101074.38
2023-05-06T06:18:15.455Z,101067.53
2023-05-06T06:21:00.530Z,101073.41
2023-05-06T06:23:46.076Z,101079.63
2023-05-06T06:26:32.328Z,101079.75
2023-05-06T06:29:18.108Z,101089.53
2023-05-06T06:32:04.067Z,101084.69
2023-05-06T06:34:49.237Z,101097.72
2023-05-06T06:37:34.183Z,101090.72
2023-05-06T06:40:20.109Z,101091.81
2023-05-06T06:43:05.196Z,101095.88
2023-05-06T06:45:51.009Z,101103.94
2023-05-06T06:48:36.148Z,101102.66
2023-05-06T06:51:21.247Z,101099.84
2023-05-06T06:54:06.336Z,101091.25
2023-05-06T06:56:55.215Z,101094.81
2023-05-06T06:59:40.294Z,101081.69
2023-05-06T07:02:25.198Z,101092.16
2023-05-06T07:05:10.478Z,101099.88
2023-05-06T07:07:56.112Z,101102.19
2023-05-06T07:10:41.732Z,101106.50
2023-05-06T07:13:28.678Z,101110.16
2023-05-06T07:16:13.678Z,101107.59
2023-05-06T07:18:59.036Z,101115.53
2023-05-06T07:21:43.909Z,101121.06
2023-05-06T07:24:29.612Z,101116.59
2023-05-06T07:27:14.695Z,101119.59
2023-05-06T07:30:00.682Z,101122.88
2023-05-06T07:32:46.590Z,101125.19
2023-05-06T07:35:31.735Z,101124.47
2023-05-06T07:38:17.182Z,101132.47
2023-05-06T07:41:02.559Z,101139.94
2023-05-06T07:43:49.193Z,101146.75
2023-05-06T07:46:34.955Z,101148.19
2023-05-06T07:49:20.021Z,101151.47
2023-05-06T07:52:05.624Z,101145.50
2023-05-06T07:54:51.064Z,101156.72
2023-05-06T07:57:36.356Z,101158.38
2023-05-06T08:00:21.417Z,101151.25
2023-05-06T08:03:06.728Z,101158.75
2023-05-06T08:05:52.674Z,101166.72
2023-05-06T08:08:40.608Z,101156.78
2023-05-06T08:11:25.680Z,101163.34
2023-05-06T08:14:10.782Z,101161.56
2023-05-06T08:16:55.957Z,101168.38
2023-05-06T08:19:40.973Z,101166.31
2023-05-06T08:22:27.003Z,101170.56
2023-05-06T08:25:13.458Z,101169.75
2023-05-06T08:27:58.845Z,101178.41
2023-05-06T08:30:48.222Z,101176.03
2023-05-06T08:33:33.461Z,101173.56
2023-05-06T08:36:18.843Z,101182.19
2023-05-06T08:39:04.753Z,101172.81
2023-05-06T08:41:53.926Z,101187.28
2023-05-06T08:44:39.874Z,101184.06
2023-05-06T08:47:25.067Z,101183.91
2023-05-06T08:50:13.765Z,101183.53
2023-05-06T08:53:01.551Z,101186.84
2023-05-06T08:55:50.033Z,101185.44
2023-05-06T08:58:39.511Z,101182.56
2023-05-06T09:01:28.248Z,101183.25
2023-05-06T09:04:13.309Z,101199.16
2023-05-06T09:06:59.357Z,101193.50
2023-05-06T09:09:44.544Z,101198.41
2023-05-06T09:12:30.253Z,101195.13
2023-05-06T09:15:15.560Z,101198.63
2023-05-06T09:18:00.792Z,101193.09
2023-05-06T09:20:48.124Z,101193.31
2023-05-06T09:23:32.883Z,101189.31
2023-05-06T09:26:18.133Z,101189.69
2023-05-06T09:29:04.458Z,101194.00
2023-05-06T09:31:51.037Z,101192.59
2023-05-06T09:34:36.166Z,101186.22
2023-05-06T09:37:23.487Z,101190.09
2023-05-06T09:40:09.471Z,101183.41
2023-05-06T09:42:54.399Z,101181.50
2023-05-06T09:45:39.595Z,101182.25
2023-05-06T09:48:29.238Z,101185.22
2023-05-06T09:51:14.761Z,101188.09
2023-05-06T09:54:00.941Z,101187.34
2023-05-06T09:56:47.577Z,101191.94
2023-05-06T09:59:33.961Z,101202.09
2023-05-06T10:02:20.470Z,101183.63
2023-05-06T10:05:06.305Z,101199.63
2023-05-06T10:07:53.288Z,101195.41
2023-05-06T10:10:42.596Z,101192.88
2023-05-06T10:13:27.959Z,101186.94
2023-05-06T10:16:16.578Z,101191.22
2023-05-06T10:19:04.616Z,101192.44
2023-05-06T10:21:54.789Z,101186.16
2023-05-06T10:24:51.823Z,101189.50
2023-05-06T10:27:41.891Z,101195.78
2023-05-06T10:30:29.421Z,101194.22
2023-05-06T10:33:16.418Z,101197.91
2023-05-06T10:36:15.938Z,101195.13
2023-05-06T10:39:03.331Z,101187.09
2023-05-06T10:41:48.952Z,101196.78
2023-05-06T10:44:56.429Z,101197.47
2023-05-06T10:47:57.180Z,101193.91
2023-05-06T10:50:43.606Z,101195.88
2023-05-06T10:53:56.468Z,101197.91
2023-05-06T10:56:54.056Z,101188.31
2023-05-06T10:59:46.125Z,101199.03
2023-05-06T11:02:32.124Z,101198.34
2023-05-06T11:05:18.714Z,101194.66
2023-05-06T11:08:09.387Z,101196.94
2023-05-06T11:10:55.485Z,101192.53
2023-05-06T11:13:40.442Z,101189.16
2023-05-06T11:16:50.618Z,101197.94
2023-05-06T11:19:37.675Z,101192.28
2023-05-06T11:22:40.101Z,101197.75
2023-05-06T11:25:42.425Z,101204.50
2023-05-06T11:28:29.680Z,101202.66
2023-05-06T11:31:15.557Z,101201.72
2023-05-06T11:34:04.925Z,101200.38
2023-05-06T11:36:53.140Z,101199.00
2023-05-06T11:39:40.697Z,101200.13
2023-05-06T11:42:27.804Z,101202.03
2023-05-06T11:45:12.913Z,101204.06
2023-05-06T11:47:58.134Z,101199.06
2023-05-06T11:50:47.780Z,101195.69
2023-05-06T11:53:32.925Z,101203.47
2023-05-06T11:56:19.386Z,101208.50
2023-05-06T11:59:04.556Z,101208.44
2023-05-06T12:01:50.592Z,101217.22
2023-05-06T12:04:44.066Z,101206.09
2023-05-06T12:07:31.298Z,101211.44
2023-05-06T12:10:17.227Z,101216.88
2023-05-06T12:13:03.080Z,101205.00
2023-05-06T12:15:49.865Z,101207.47
2023-05-06T12:18:34.872Z,101203.69
2023-05-06T12:21:24.672Z,101212.72
2023-05-06T12:24:12.658Z,101212.47
2023-05-06T12:26:58.263Z,101219.50
2023-05-06T12:29:52.696Z,101227.66
2023-05-06T12:32:57.499Z,101227.28
2023-05-06T12:35:42.608Z,101229.72
2023-05-06T12:38:28.370Z,101237.31
2023-05-06T12:41:13.578Z,101236.63
2023-05-06T12:43:58.439Z,101235.91
2023-05-06T12:46:51.991Z,101238.41
2023-05-06T12:49:59.392Z,101243.47
2023-05-06T12:52:45.544Z,101237.59
2023-05-06T12:55:34.805Z,101239.97
2023-05-06T12:58:20.922Z,101225.38
2023-05-06T13:01:09.003Z,101236.97
2023-05-06T13:03:57.002Z,101233.38
2023-05-06T13:06:41.985Z,101240.44
2023-05-06T13:09:27.766Z,101238.50
2023-05-06T13:12:13.472Z,101231.13
2023-05-06T13:14:59.620Z,101227.44
2023-05-06T13:17:44.441Z,101233.38
2023-05-06T13:20:30.238Z,101238.16
2023-05-06T13:23:15.764Z,101241.69
2023-05-06T13:26:04.841Z,101247.50
2023-05-06T13:28:51.056Z,101233.31
2023-05-06T13:31:36.500Z,101234.41
2023-05-06T13:34:21.278Z,101245.09
2023-05-06T13:37:06.276Z,101227.03
2023-05-06T13:39:51.384Z,101231.75
2023-05-06T13:42:36.644Z,101232.28
2023-05-06T13:45:21.568Z,101229.69
2023-05-06T13:48:06.464Z,101226.78
2023-05-06T13:50:51.542Z,101239.13
2023-05-06T13:53:39.290Z,101234.28
2023-05-06T13:56:24.564Z,101242.38
2023-05-06T13:59:12.018Z,101233.94
2023-05-06T14:01:58.215Z,101240.22
2023-05-06T14:04:43.899Z,101237.53
2023-05-06T14:07:28.999Z,101242.00
2023-05-06T14:10:14.077Z,101249.72
2023-05-06T14:12:59.427Z,101243.41
2023-05-06T14:15:44.828Z,101253.41
2023-05-06T14:18:31.275Z,101240.94
2023-05-06T14:21:16.361Z,101240.97
2023-05-06T14:24:01.270Z,101244.06
2023-05-06T14:26:46.834Z,101245.69
2023-05-06T14:29:32.105Z,101248.09
2023-05-06T14:32:17.159Z,101234.94
2023-05-06T14:35:02.331Z,101245.56
2023-05-06T14:37:47.482Z,101237.38
2023-05-06T14:40:32.658Z,101231.50
2023-05-06T14:43:17.454Z,101237.00
2023-05-06T14:46:02.370Z,101229.66
2023-05-06T14:48:47.238Z,101245.97
2023-05-06T14:51:34.549Z,101244.09
2023-05-06T14:54:19.985Z,101239.56
2023-05-06T14:57:05.005Z,101237.94
2023-05-06T14:59:52.456Z,101235.84
2023-05-06T15:02:38.288Z,101244.41
2023-05-06T15:05:23.418Z,101249.84
2023-05-06T15:08:10.110Z,101256.81
2023-05-06T15:10:55.303Z,101255.78
2023-05-06T15:13:40.256Z,101260.06
2023-05-06T15:16:27.471Z,101258.34
2023-05-06T15:19:13.062Z,101264.16
2023-05-06T15:21:57.975Z,101270.47
2023-05-06T15:24:43.138Z,101279.09
2023-05-06T15:27:28.232Z,101278.06
2023-05-06T15:30:13.618Z,101275.47
2023-05-06T15:32:58.594Z,101275.91
2023-05-06T15:35:43.345Z,101276.03
2023-05-06T15:38:28.727Z,101287.59
2023-05-06T15:41:13.552Z,101294.72
2023-05-06T15:44:00.359Z,101296.13
2023-05-06T15:46:46.371Z,101299.31
2023-05-06T15:52:21.042Z,101297.41
2023-05-06T15:55:07.306Z,101303.63
2023-05-06T15:57:54.806Z,101301.69
2023-05-06T16:00:42.661Z,101300.28
2023-05-06T16:03:28.436Z,101298.22
2023-05-06T16:06:15.364Z,101296.91
2023-05-06T16:09:01.632Z,101305.88
2023-05-06T16:11:47.184Z,101296.00
2023-05-06T16:14:33.115Z,101306.94
2023-05-06T16:17:19.626Z,101298.84
2023-05-06T16:20:05.603Z,101309.28
2023-05-06T16:22:51.401Z,101302.56
2023-05-06T16:25:38.269Z,101315.13
2023-05-06T16:28:33.367Z,101303.78
2023-05-06T16:31:18.452Z,101299.66
2023-05-06T16:34:03.869Z,101302.41
2023-05-06T16:36:51.761Z,101308.13
2023-05-06T16:39:41.710Z,101305.81
2023-05-06T16:42:26.748Z,101304.03
2023-05-06T16:45:12.014Z,101311.50
2023-05-06T16:47:57.013Z,101315.22
2023-05-06T16:50:42.299Z,101309.34
2023-05-06T16:53:27.740Z,101306.19
2023-05-06T16:56:17.766Z,101310.38
2023-05-06T16:59:03.155Z,101310.25
2023-05-06T17:01:50.063Z,101317.97
2023-05-06T17:04:35.120Z,101318.63
2023-05-06T17:07:21.980Z,101319.03
2023-05-06T17:10:07.614Z,101314.84
2023-05-06T17:12:53.329Z,101321.69
2023-05-06T17:15:38.705Z,101318.09
2023-05-06T17:18:24.450Z,101322.78
2023-05-06T17:21:09.433Z,101310.47
2023-05-06T17:23:54.550Z,101326.22
2023-05-06T17:26:40.730Z,101335.94
2023-05-06T17:29:28.421Z,101328.94
2023-05-06T17:32:13.943Z,101328.28
2023-05-06T17:34:58.770Z,101328.63
2023-05-06T17:37:43.931Z,101336.31
2023-05-06T17:40:28.709Z,101332.03
2023-05-06T17:43:14.048Z,101329.31
2023-05-06T17:45:59.192Z,101325.03
2023-05-06T17:48:44.008Z,101330.97
2023-05-06T17:51:29.180Z,101339.25
2023-05-06T17:54:15.242Z,101342.25
2023-05-06T17:57:03.215Z,101334.03
2023-05-06T17:59:48.437Z,101336.78
2023-05-06T18:02:33.833Z,101338.41
2023-05-06T18:05:19.309Z,101341.69
2023-05-06T18:08:05.720Z,101347.91
2023-05-06T18:10:51.941Z,101354.53
2023-05-06T18:13:37.135Z,101351.00
2023-05-06T18:16:22.745Z,101360.75
2023-05-06T18:19:08.007Z,101367.81
2023-05-06T18:21:52.948Z,101367.00
2023-05-06T18:24:38.704Z,101372.97
2023-05-06T18:27:24.949Z,101375.28
2023-05-06T18:30:11.019Z,101370.34
2023-05-06T18:32:56.902Z,101376.22
2023-05-06T18:35:42.365Z,101376.94
2023-05-06T18:38:27.620Z,101376.19
2023-05-06T18:41:13.288Z,101383.41
2023-05-06T18:43:58.732Z,101385.44
2023-05-06T18:46:44.158Z,101389.84
2023-05-06T18:49:30.989Z,101390.72
2023-05-06T18:52:17.887Z,101391.38
2023-05-06T18:55:04.693Z,101387.09
2023-05-06T18:57:51.127Z,101397.75
2023-05-06T19:00:36.527Z,101403.72
2023-05-06T19:03:22.354Z,101399.22
2023-05-06T19:06:09.261Z,101401.81
2023-05-06T19:08:57.834Z,101406.06
2023-05-06T19:11:44.139Z,101408.91
2023-05-06T19:14:29.351Z,101414.91
2023-05-06T19:17:16.674Z,101417.59
2023-05-06T19:20:01.573Z,101421.22
2023-05-06T19:22:46.404Z,101422.81
2023-05-06T19:25:35.073Z,101430.88
2023-05-06T19:28:20.673Z,101429.88
2023-05-06T19:31:09.428Z,101433.22
2023-05-06T19:33:56.242Z,101432.50
2023-05-06T19:36:42.915Z,101434.28
2023-05-06T19:39:27.959Z,101432.63
2023-05-06T19:42:13.527Z,101429.78
2023-05-06T19:44:58.668Z,101420.88
2023-05-06T19:47:47.098Z,101427.25
2023-05-06T19:50:35.365Z,101423.75
2023-05-06T19:53:22.496Z,101419.19
2023-05-06T19:56:12.082Z,101413.59
2023-05-06T19:58:58.061Z,101421.69
2023-05-06T20:01:44.772Z,101424.41
2023-05-06T20:04:29.812Z,101421.81
2023-05-06T20:07:20.496Z,101429.50
2023-05-06T20:10:10.284Z,101439.78
2023-05-06T20:12:57.655Z,101454.00
2023-05-06T20:15:44.090Z,101446.97
2023-05-06T20:18:31.796Z,101452.31
2023-05-06T20:21:17.153Z,101454.84
2023-05-06T20:24:03.049Z,101444.56
2023-05-06T20:26:47.954Z,101442.94
2023-05-06T20:29:32.987Z,101435.13
2023-05-06T20:32:19.271Z,101443.00
2023-05-06T20:35:06.448Z,101446.56
2023-05-06T20:37:51.835Z,101454.41
2023-05-06T20:40:38.124Z,101439.63
2023-05-06T20:43:25.822Z,101450.88
2023-05-06T20:46:11.901Z,101455.31
2023-05-06T20:48:59.116Z,101457.00
2023-05-06T20:51:44.596Z,101452.66
2023-05-06T20:54:29.721Z,101455.97
2023-05-06T20:57:16.120Z,101451.38
2023-05-06T21:00:01.286Z,101460.19
2023-05-06T21:02:48.073Z,101457.69
2023-05-06T21:05:33.652Z,101455.13
2023-05-06T21:08:18.833Z,101460.44
2023-05-06T21:11:03.852Z,101463.16
2023-05-06T21:13:50.416Z,101465.56
2023-05-06T21:16:35.930Z,101456.19
2023-05-06T21:19:21.108Z,101455.31
2023-05-06T21:22:10.699Z,101458.88
2023-05-06T21:24:57.148Z,101461.63
2023-05-06T21:27:42.660Z,101471.03
2023-05-06T21:30:29.232Z,101456.25
2023-05-06T21:33:14.449Z,101457.13
2023-05-06T21:36:00.832Z,101464.91
2023-05-06T21:38:48.005Z,101463.22
2023-05-06T21:41:37.893Z,101458.06
2023-05-06T21:44:23.153Z,101463.38
2023-05-06T21:47:09.565Z,101465.03
2023-05-06T21:49:54.263Z,101466.84
2023-05-06T21:52:40.989Z,101474.69
2023-05-06T21:55:27.837Z,101467.81
2023-05-06T21:58:13.336Z,101469.47
2023-05-06T22:00:58.201Z,101477.31
2023-05-06T22:03:44.081Z,101468.63
2023-05-06T22:06:29.535Z,101472.13
2023-05-06T22:09:14.544Z,101475.66
2023-05-06T22:11:59.595Z,101474.78
2023-05-06T22:14:47.422Z,101466.78
2023-05-06T22:17:34.615Z,101474.72
2023-05-06T22:20:21.575Z,101475.59
2023-05-06T22:23:10.621Z,101474.75
2023-05-06T22:25:55.663Z,101473.84
2023-05-06T22:28:40.605Z,101477.28
2023-05-06T22:31:26.247Z,101475.47
2023-05-06T22:34:11.262Z,101478.16
2023-05-06T22:36:58.332Z,101472.97
2023-05-06T22:39:47.254Z,101476.50
2023-05-06T22:42:32.935Z,101479.06
2023-05-06T22:45:17.781Z,101482.44
2023-05-06T22:48:03.230Z,101492.84
2023-05-06T22:50:48.242Z,101489.53
2023-05-06T22:53:33.656Z,101478.22
2023-05-06T22:56:19.806Z,101474.75
2023-05-06T22:59:05.649Z,101476.47
2023-05-06T23:01:51.051Z,101480.75
2023-05-06T23:04:36.030Z,101482.56
2023-05-06T23:07:21.747Z,101486.06
2023-05-06T23:10:07.489Z,101487.75
2023-05-06T23:12:52.629Z,101486.81
2023-05-06T23:15:37.894Z,101492.03
2023-05-06T23:18:23.050Z,101489.41
2023-05-06T23:21:08.509Z,101486.03
2023-05-06T23:23:53.592Z,101482.56
2023-05-06T23:26:38.901Z,101485.13
2023-05-06T23:29:24.372Z,101492.03
2023-05-06T23:32:09.402Z,101485.16
2023-05-06T23:34:54.502Z,101488.44
2023-05-06T23:37:39.614Z,101480.75
2023-05-06T23:40:24.756Z,101474.72
2023-05-06T23:43:11.162Z,101482.59
2023-05-06T23:45:57.254Z,101473.78
2023-05-06T23:48:42.364Z,101484.22
2023-05-06T23:51:27.339Z,101487.75
2023-05-06T23:54:12.225Z,101491.25
2023-05-06T23:56:57.262Z,101483.50
2023-05-06T23:59:42.430Z,101485.13
